Aviation Digital Data Service (ADDS)

Output produced by METARs form (2116 UTC 27 May 2017)
found at http://aviationweather.gov/adds/metars/
 
KROA 271741Z 2718/2818 23007KT P6SM BKN050 
     FM272200 24007KT P6SM VCTS BKN050CB 
     TEMPO 2722/2802 4SM SHRA OVC025 
     FM280200 26005KT P6SM VCSH BKN060 
     FM280500 00000KT P6SM BKN200 
     FM281100 00000KT 4SM BR SCT250 
     FM281200 00000KT P6SM SCT200 
     FM281500 00000KT P6SM BKN035